createdAt,value
2023-09-25T00:00:30.531Z,1018.08
2023-09-25T00:01:30.561Z,1018.06
2023-09-25T00:02:30.564Z,1018.07
2023-09-25T00:03:37.457Z,1018.07
2023-09-25T00:04:30.772Z,1018.07
2023-09-25T00:05:30.729Z,1018.05
2023-09-25T00:06:30.665Z,1018.05
2023-09-25T00:07:30.689Z,1018.03
2023-09-25T00:08:30.698Z,1018.03
2023-09-25T00:09:30.799Z,1017.99
2023-09-25T00:10:30.749Z,1018.01
2023-09-25T00:11:30.773Z,1018.01
2023-09-25T00:12:30.825Z,1018.02
2023-09-25T00:13:30.820Z,1018.02
2023-09-25T00:14:30.840Z,1017.99
2023-09-25T00:15:31.097Z,1018.01
2023-09-25T00:16:30.914Z,1017.99
2023-09-25T00:17:30.937Z,1018.01
2023-09-25T00:18:31.007Z,1018.03
2023-09-25T00:19:30.952Z,1018.00
2023-09-25T00:20:30.976Z,1018.02
2023-09-25T00:21:31.043Z,1018.03
2023-09-25T00:22:31.018Z,1018.03
2023-09-25T00:23:31.043Z,1017.99
2023-09-25T00:24:31.130Z,1017.98
2023-09-25T00:25:31.092Z,1017.99
2023-09-25T00:26:31.124Z,1017.96
2023-09-25T00:27:31.204Z,1017.95
2023-09-25T00:28:31.161Z,1017.96
2023-09-25T00:29:31.185Z,1017.94
2023-09-25T00:30:31.316Z,1017.98
2023-09-25T00:31:31.229Z,1017.96
2023-09-25T00:32:31.309Z,1017.99
2023-09-25T00:33:31.319Z,1017.98
2023-09-25T00:34:31.375Z,1017.95
2023-09-25T00:35:31.326Z,1017.93
2023-09-25T00:36:31.370Z,1017.94
2023-09-25T00:37:31.381Z,1017.91
2023-09-25T00:38:31.386Z,1017.92
2023-09-25T00:39:31.443Z,1017.92
2023-09-25T00:40:31.434Z,1017.90
2023-09-25T00:41:31.453Z,1017.89
2023-09-25T00:42:31.498Z,1017.90
2023-09-25T00:43:31.501Z,1017.94
2023-09-25T00:44:31.527Z,1017.92
2023-09-25T00:45:31.618Z,1017.93
2023-09-25T00:46:31.622Z,1017.93
2023-09-25T00:47:31.627Z,1017.90
2023-09-25T00:48:31.688Z,1017.87
2023-09-25T00:49:31.642Z,1017.89
2023-09-25T00:50:31.657Z,1017.86
2023-09-25T00:51:31.836Z,1017.84
2023-09-25T00:52:31.706Z,1017.84
2023-09-25T00:53:31.728Z,1017.81
2023-09-25T00:54:40.729Z,1017.86
2023-09-25T00:55:31.780Z,1017.86
2023-09-25T00:56:31.805Z,1017.87
2023-09-25T00:57:31.830Z,1017.87
2023-09-25T00:58:31.842Z,1017.86
2023-09-25T00:59:31.865Z,1017.86
2023-09-25T01:00:31.978Z,1017.86
2023-09-25T01:01:31.933Z,1017.88
2023-09-25T01:02:31.946Z,1017.93
2023-09-25T01:03:32.000Z,1017.88
2023-09-25T01:04:32.023Z,1017.85
2023-09-25T01:05:32.001Z,1017.86
2023-09-25T01:06:32.067Z,1017.86
2023-09-25T01:07:32.066Z,1017.91
2023-09-25T01:08:32.070Z,1017.90
2023-09-25T01:09:32.149Z,1017.89
2023-09-25T01:10:32.122Z,1017.91
2023-09-25T01:11:32.135Z,1017.91
2023-09-25T01:12:32.202Z,1017.90
2023-09-25T01:13:32.191Z,1017.89
2023-09-25T01:14:32.223Z,1017.92
2023-09-25T01:15:32.328Z,1017.94
2023-09-25T01:16:32.290Z,1017.92
2023-09-25T01:17:32.295Z,1017.94
2023-09-25T01:18:32.390Z,1017.96
2023-09-25T01:19:32.325Z,1017.89
2023-09-25T01:20:32.342Z,1017.86
2023-09-25T01:21:32.431Z,1017.86
2023-09-25T01:22:32.393Z,1017.90
2023-09-25T01:23:32.413Z,1017.84
2023-09-25T01:24:32.498Z,1017.83
2023-09-25T01:25:32.466Z,1017.87
2023-09-25T01:26:32.477Z,1017.86
2023-09-25T01:27:32.568Z,1017.87
2023-09-25T01:28:32.525Z,1017.84
2023-09-25T01:29:32.545Z,1017.80
2023-09-25T01:30:32.608Z,1017.78
2023-09-25T01:31:32.593Z,1017.80
2023-09-25T01:32:32.624Z,1017.77
2023-09-25T01:33:32.716Z,1017.75
2023-09-25T01:34:32.665Z,1017.78
2023-09-25T01:35:32.682Z,1017.70
2023-09-25T01:36:32.733Z,1017.71
2023-09-25T01:37:32.735Z,1017.68
2023-09-25T01:38:32.746Z,1017.72
2023-09-25T01:39:32.816Z,1017.69
2023-09-25T01:40:32.792Z,1017.71
2023-09-25T01:41:32.822Z,1017.71
2023-09-25T01:42:32.890Z,1017.68
2023-09-25T01:43:32.869Z,1017.68
2023-09-25T01:44:32.881Z,1017.72
2023-09-25T01:45:32.962Z,1017.71
2023-09-25T01:46:32.992Z,1017.71
2023-09-25T01:47:33.005Z,1017.71
2023-09-25T01:48:33.016Z,1017.74
2023-09-25T01:49:33.059Z,1017.74
2023-09-25T01:50:33.017Z,1017.72
2023-09-25T01:51:33.074Z,1017.73
2023-09-25T01:52:33.067Z,1017.78
2023-09-25T01:53:33.093Z,1017.78
2023-09-25T01:54:33.156Z,1017.80
2023-09-25T01:55:33.414Z,1017.79
2023-09-25T01:56:33.153Z,1017.80
2023-09-25T01:57:33.213Z,1017.82
2023-09-25T01:58:33.213Z,1017.83
2023-09-25T01:59:33.221Z,1017.82
2023-09-25T02:00:33.262Z,1017.83
2023-09-25T02:01:33.308Z,1017.80
2023-09-25T02:02:33.326Z,1017.81
2023-09-25T02:03:33.459Z,1017.84
2023-09-25T02:04:33.538Z,1017.81
2023-09-25T02:05:33.464Z,1017.81
2023-09-25T02:06:33.442Z,1017.83
2023-09-25T02:07:33.406Z,1017.82
2023-09-25T02:08:33.423Z,1017.79
2023-09-25T02:09:33.456Z,1017.82
2023-09-25T02:10:33.467Z,1017.79
2023-09-25T02:11:33.495Z,1017.81
2023-09-25T02:12:33.534Z,1017.80
2023-09-25T02:13:33.554Z,1017.78
2023-09-25T02:14:33.559Z,1017.79
2023-09-25T02:15:33.610Z,1017.77
2023-09-25T02:16:33.639Z,1017.75
2023-09-25T02:17:33.686Z,1017.75
2023-09-25T02:18:33.694Z,1017.71
2023-09-25T02:19:33.681Z,1017.71
2023-09-25T02:20:33.696Z,1017.71
2023-09-25T02:21:33.748Z,1017.69
2023-09-25T02:22:33.739Z,1017.69
2023-09-25T02:23:33.762Z,1017.79
2023-09-25T02:24:33.831Z,1017.71
2023-09-25T02:25:33.806Z,1017.71
2023-09-25T02:26:33.830Z,1017.75
2023-09-25T02:27:33.882Z,1017.75
2023-09-25T02:28:33.876Z,1017.74
2023-09-25T02:29:33.900Z,1017.71
2023-09-25T02:30:33.968Z,1017.74
2023-09-25T02:31:33.968Z,1017.72
2023-09-25T02:32:34.010Z,1017.70
2023-09-25T02:33:34.048Z,1017.70
2023-09-25T02:34:34.023Z,1017.71
2023-09-25T02:35:34.036Z,1017.70
2023-09-25T02:36:34.171Z,1017.72
2023-09-25T02:37:34.084Z,1017.70
2023-09-25T02:38:34.098Z,1017.75
2023-09-25T02:39:34.156Z,1017.74
2023-09-25T02:40:34.147Z,1017.72
2023-09-25T02:41:34.172Z,1017.74
2023-09-25T02:42:34.300Z,1017.72
2023-09-25T02:43:34.214Z,1017.74
2023-09-25T02:44:34.239Z,1017.75
2023-09-25T02:45:34.427Z,1017.72
2023-09-25T02:46:34.315Z,1017.74
2023-09-25T02:47:34.336Z,1017.74
2023-09-25T02:48:34.347Z,1017.77
2023-09-25T02:49:34.351Z,1017.77
2023-09-25T02:50:34.383Z,1017.77
2023-09-25T02:51:34.421Z,1017.80
2023-09-25T02:52:34.422Z,1017.81
2023-09-25T02:53:34.442Z,1017.85
2023-09-25T02:54:34.523Z,1017.82
2023-09-25T02:55:34.487Z,1017.86
2023-09-25T02:56:34.517Z,1017.86
2023-09-25T02:57:34.570Z,1017.85
2023-09-25T02:58:34.566Z,1017.83
2023-09-25T02:59:34.581Z,1017.86
2023-09-25T03:00:34.646Z,1017.84
2023-09-25T03:01:34.668Z,1017.88
2023-09-25T03:02:34.670Z,1017.82
2023-09-25T03:03:34.697Z,1017.87
2023-09-25T03:04:34.744Z,1017.84
2023-09-25T03:05:34.715Z,1017.86
2023-09-25T03:06:34.768Z,1017.88
2023-09-25T03:07:41.921Z,1017.87
2023-09-25T03:09:38.806Z,1017.88
2023-09-25T03:10:38.787Z,1017.86
2023-09-25T03:12:31.760Z,1017.87
2023-09-25T03:13:31.731Z,1017.83
2023-09-25T03:15:35.890Z,1017.80
2023-09-25T03:16:35.782Z,1017.86
2023-09-25T03:18:39.839Z,1017.81
2023-09-25T03:19:39.781Z,1017.84
2023-09-25T03:21:43.850Z,1017.89
2023-09-25T03:22:43.811Z,1017.87
2023-09-25T03:24:47.913Z,1017.85
2023-09-25T03:25:47.837Z,1017.86
2023-09-25T03:27:51.866Z,1017.88
2023-09-25T03:28:51.996Z,1017.88
2023-09-25T03:30:55.955Z,1017.93
2023-09-25T03:31:55.900Z,1017.91
2023-09-25T03:33:59.945Z,1017.93
2023-09-25T03:34:59.930Z,1017.93
2023-09-25T03:37:03.952Z,1017.92
2023-09-25T03:38:03.980Z,1017.95
2023-09-25T03:40:07.986Z,1017.95
2023-09-25T03:41:07.991Z,1017.92
2023-09-25T03:43:00.938Z,1017.98
2023-09-25T03:44:00.938Z,1017.98
2023-09-25T03:46:04.965Z,1018.00
2023-09-25T03:47:04.996Z,1018.02
2023-09-25T03:49:09.000Z,1018.02
2023-09-25T03:50:08.980Z,1018.04
2023-09-25T03:52:01.953Z,1018.01
2023-09-25T03:53:01.926Z,1018.02
2023-09-25T03:55:05.944Z,1018.04
2023-09-25T03:56:05.946Z,1018.06
2023-09-25T03:58:09.982Z,1018.08
2023-09-25T03:59:09.986Z,1018.10
2023-09-25T04:01:14.001Z,1018.03
2023-09-25T04:02:13.988Z,1018.08
2023-09-25T04:04:07.193Z,1018.09
2023-09-25T04:05:07.257Z,1018.09
2023-09-25T04:07:11.180Z,1018.13
2023-09-25T04:08:11.158Z,1018.15
2023-09-25T04:10:15.171Z,1018.15
2023-09-25T04:11:15.181Z,1018.14
2023-09-25T04:13:19.215Z,1018.10
2023-09-25T04:14:19.302Z,1018.14
2023-09-25T04:16:23.224Z,1018.15
2023-09-25T04:17:23.219Z,1018.13
2023-09-25T04:19:27.462Z,1018.17
2023-09-25T04:20:27.254Z,1018.17
2023-09-25T04:22:20.191Z,1018.18
2023-09-25T04:23:20.198Z,1018.19
2023-09-25T04:25:24.209Z,1018.16
2023-09-25T04:26:24.214Z,1018.13
2023-09-25T04:28:28.251Z,1018.14
2023-09-25T04:29:28.239Z,1018.11
2023-09-25T04:31:33.302Z,1018.15
2023-09-25T04:32:32.299Z,1018.20
2023-09-25T04:34:36.297Z,1018.20
2023-09-25T04:35:36.299Z,1018.21
2023-09-25T04:37:40.328Z,1018.23
2023-09-25T04:38:40.321Z,1018.24
2023-09-25T04:40:44.367Z,1018.25
2023-09-25T04:41:44.357Z,1018.23
2023-09-25T04:43:48.388Z,1018.26
2023-09-25T04:44:48.384Z,1018.25
2023-09-25T04:46:52.426Z,1018.30
2023-09-25T04:47:52.455Z,1018.25
2023-09-25T04:49:56.450Z,1018.27
2023-09-25T04:50:56.443Z,1018.22
2023-09-25T04:52:49.381Z,1018.26
2023-09-25T04:53:49.383Z,1018.28
2023-09-25T04:55:53.417Z,1018.23
2023-09-25T04:56:53.410Z,1018.22
2023-09-25T04:58:57.433Z,1018.15
2023-09-25T04:59:57.458Z,1018.19
2023-09-25T05:02:01.485Z,1018.20
2023-09-25T05:03:01.573Z,1018.19
2023-09-25T05:05:05.505Z,1018.22
2023-09-25T05:06:05.574Z,1018.22
2023-09-25T05:08:09.567Z,1018.24
2023-09-25T05:09:09.565Z,1018.25
2023-09-25T05:11:13.570Z,1018.24
2023-09-25T05:12:13.592Z,1018.23
2023-09-25T05:14:17.580Z,1018.24
2023-09-25T05:15:17.586Z,1018.24
2023-09-25T05:17:21.607Z,1018.22
2023-09-25T05:18:21.632Z,1018.20
2023-09-25T05:20:25.646Z,1018.16
2023-09-25T05:21:25.714Z,1018.17
2023-09-25T05:23:29.655Z,1018.11
2023-09-25T05:24:29.680Z,1018.13
2023-09-25T05:26:33.693Z,1018.17
2023-09-25T05:27:33.738Z,1018.17
2023-09-25T05:29:37.721Z,1018.16
2023-09-25T05:30:37.782Z,1018.17
2023-09-25T05:32:30.715Z,1018.19
2023-09-25T05:33:30.673Z,1018.17
2023-09-25T05:35:34.698Z,1018.22
2023-09-25T05:36:34.736Z,1018.21
2023-09-25T05:38:38.715Z,1018.20
2023-09-25T05:39:38.765Z,1018.13
2023-09-25T05:41:42.807Z,1018.20
2023-09-25T05:42:42.850Z,1018.23
2023-09-25T05:44:46.780Z,1018.21
2023-09-25T05:45:46.848Z,1018.20
2023-09-25T05:47:50.853Z,1018.27
2023-09-25T05:48:50.994Z,1018.20
2023-09-25T05:50:54.835Z,1018.18
2023-09-25T05:51:54.873Z,1018.18
2023-09-25T05:53:58.879Z,1018.19
2023-09-25T05:54:58.881Z,1018.20
2023-09-25T05:57:03.012Z,1018.21
2023-09-25T05:58:03.022Z,1018.21
2023-09-25T06:00:07.075Z,1018.24
2023-09-25T06:01:07.090Z,1018.20
2023-09-25T06:03:00.038Z,1018.22
2023-09-25T06:04:00.087Z,1018.24
2023-09-25T06:06:04.029Z,1018.21
2023-09-25T06:07:04.028Z,1018.25
2023-09-25T06:09:08.050Z,1018.24
2023-09-25T06:10:08.052Z,1018.23
2023-09-25T06:12:01.027Z,1018.25
2023-09-25T06:13:01.002Z,1018.26
2023-09-25T06:15:05.026Z,1018.24
2023-09-25T06:16:05.027Z,1018.25
2023-09-25T06:18:09.074Z,1018.27
2023-09-25T06:19:09.056Z,1018.32
2023-09-25T06:21:13.091Z,1018.31
2023-09-25T06:22:13.081Z,1018.30
2023-09-25T06:24:17.141Z,1018.29
2023-09-25T06:25:17.115Z,1018.31
2023-09-25T06:27:21.183Z,1018.35
2023-09-25T06:28:21.143Z,1018.34
2023-09-25T06:30:25.217Z,1018.38
2023-09-25T06:31:25.250Z,1018.32
2023-09-25T06:33:29.278Z,1018.37
2023-09-25T06:34:29.646Z,1018.36
2023-09-25T06:36:33.303Z,1018.37
2023-09-25T06:37:33.868Z,1018.39
2023-09-25T06:39:37.346Z,1018.40
2023-09-25T06:40:37.305Z,1018.43
2023-09-25T06:42:30.256Z,1018.46
2023-09-25T06:43:30.202Z,1018.50
2023-09-25T06:45:34.268Z,1018.49
2023-09-25T06:46:34.299Z,1018.46
2023-09-25T06:48:38.261Z,1018.49
2023-09-25T06:49:38.259Z,1018.49
2023-09-25T06:51:42.323Z,1018.48
2023-09-25T06:52:42.301Z,1018.51
2023-09-25T06:54:46.321Z,1018.46
2023-09-25T06:55:46.325Z,1018.45
2023-09-25T06:57:50.367Z,1018.45
2023-09-25T06:58:50.500Z,1018.44
2023-09-25T07:00:56.941Z,1018.41
2023-09-25T07:01:54.464Z,1018.47
2023-09-25T07:03:58.534Z,1018.46
2023-09-25T07:04:58.481Z,1018.49
2023-09-25T07:07:05.129Z,1018.49
2023-09-25T07:08:02.452Z,1018.48
2023-09-25T07:10:07.091Z,1018.45
2023-09-25T07:11:06.724Z,1018.48
2023-09-25T07:12:59.667Z,1018.43
2023-09-25T07:13:59.625Z,1018.43
2023-09-25T07:16:03.749Z,1018.47
2023-09-25T07:17:03.699Z,1018.48
2023-09-25T07:19:07.723Z,1018.45
2023-09-25T07:20:07.734Z,1018.47
2023-09-25T07:22:00.675Z,1018.46
2023-09-25T07:23:00.652Z,1018.49
2023-09-25T07:25:04.672Z,1018.48
2023-09-25T07:26:04.678Z,1018.49
2023-09-25T07:28:08.707Z,1018.47
2023-09-25T07:29:18.691Z,1018.48
2023-09-25T07:31:12.832Z,1018.49
2023-09-25T07:32:12.755Z,1018.45
2023-09-25T07:34:16.773Z,1018.41
2023-09-25T07:35:16.790Z,1018.45
2023-09-25T07:37:20.889Z,1018.49
2023-09-25T07:38:20.838Z,1018.50
2023-09-25T07:40:24.861Z,1018.50
2023-09-25T07:41:24.878Z,1018.50
2023-09-25T07:43:38.838Z,1018.51
2023-09-25T07:44:28.910Z,1018.52
2023-09-25T07:46:32.995Z,1018.51
2023-09-25T07:47:34.174Z,1018.53
2023-09-25T07:49:36.971Z,1018.57
2023-09-25T07:50:36.975Z,1018.53
2023-09-25T07:52:29.911Z,1018.50
2023-09-25T07:53:29.963Z,1018.52
2023-09-25T07:55:33.980Z,1018.45
2023-09-25T07:56:33.970Z,1018.44
2023-09-25T07:58:38.004Z,1018.43
2023-09-25T07:59:38.013Z,1018.42
2023-09-25T08:01:42.063Z,1018.44
2023-09-25T08:02:42.062Z,1018.43
2023-09-25T08:04:46.185Z,1018.44
2023-09-25T08:05:46.075Z,1018.44
2023-09-25T08:07:50.100Z,1018.42
2023-09-25T08:08:50.347Z,1018.43
2023-09-25T08:10:54.162Z,1018.49
2023-09-25T08:11:54.139Z,1018.51
2023-09-25T08:13:58.165Z,1018.53
2023-09-25T08:14:58.168Z,1018.48
2023-09-25T08:17:02.202Z,1018.51
2023-09-25T08:18:02.241Z,1018.48
2023-09-25T08:20:06.229Z,1018.46
2023-09-25T08:21:06.236Z,1018.48
2023-09-25T08:22:59.185Z,1018.45
2023-09-25T08:23:59.191Z,1018.43
2023-09-25T08:26:03.234Z,1018.47
2023-09-25T08:27:03.224Z,1018.51
2023-09-25T08:29:08.741Z,1018.43
2023-09-25T08:30:07.276Z,1018.47
2023-09-25T08:32:00.331Z,1018.46
2023-09-25T08:33:00.316Z,1018.46
2023-09-25T08:35:06.314Z,1018.44
2023-09-25T08:36:04.244Z,1018.46
2023-09-25T08:38:08.286Z,1018.47
2023-09-25T08:39:08.280Z,1018.46
2023-09-25T08:41:12.301Z,1018.47
2023-09-25T08:42:12.316Z,1018.44
2023-09-25T08:44:16.372Z,1018.45
2023-09-25T08:45:16.640Z,1018.45
2023-09-25T08:47:20.389Z,1018.41
2023-09-25T08:48:20.440Z,1018.47
2023-09-25T08:50:24.902Z,1018.46
2023-09-25T08:51:24.946Z,1018.47
2023-09-25T08:52:25.119Z,1018.43
2023-09-25T08:53:25.006Z,1018.41
2023-09-25T08:54:25.051Z,1018.40
2023-09-25T08:55:25.026Z,1018.37
2023-09-25T08:56:25.062Z,1018.38
2023-09-25T08:57:25.102Z,1018.38
2023-09-25T08:58:25.097Z,1018.34
2023-09-25T08:59:25.127Z,1018.33
2023-09-25T09:00:25.190Z,1018.34
2023-09-25T09:01:25.203Z,1018.34
2023-09-25T09:02:25.332Z,1018.34
2023-09-25T09:03:25.342Z,1018.30
2023-09-25T09:04:25.336Z,1018.25
2023-09-25T09:05:25.275Z,1018.26
2023-09-25T09:06:25.363Z,1018.26
2023-09-25T09:07:25.328Z,1018.27
2023-09-25T09:08:25.352Z,1018.23
2023-09-25T09:09:25.421Z,1018.25
2023-09-25T09:10:25.415Z,1018.23
2023-09-25T09:11:25.441Z,1018.20
2023-09-25T09:12:25.598Z,1018.17
2023-09-25T09:13:25.515Z,1018.17
2023-09-25T09:14:25.541Z,1018.18
2023-09-25T09:15:25.571Z,1018.22
2023-09-25T09:16:25.630Z,1018.18
2023-09-25T09:17:25.595Z,1018.17
2023-09-25T09:18:28.422Z,1018.09
2023-09-25T09:19:25.647Z,1018.17
2023-09-25T09:20:25.673Z,1018.15
2023-09-25T09:21:25.810Z,1018.17
2023-09-25T09:22:25.754Z,1018.19
2023-09-25T09:23:25.747Z,1018.22
2023-09-25T09:24:25.790Z,1018.23
2023-09-25T09:25:25.806Z,1018.18
2023-09-25T09:26:25.824Z,1018.24
2023-09-25T09:27:25.892Z,1018.25
2023-09-25T09:28:25.881Z,1018.27
2023-09-25T09:29:25.909Z,1018.22
2023-09-25T09:30:25.954Z,1018.21
2023-09-25T09:31:25.969Z,1018.22
2023-09-25T09:32:25.985Z,1018.23
2023-09-25T09:33:26.068Z,1018.17
2023-09-25T09:34:26.187Z,1018.16
2023-09-25T09:35:26.070Z,1018.17
2023-09-25T09:36:26.159Z,1018.16
2023-09-25T09:37:26.127Z,1018.16
2023-09-25T09:38:26.150Z,1018.14
2023-09-25T09:39:26.180Z,1018.11
2023-09-25T09:40:26.210Z,1018.12
2023-09-25T09:41:26.224Z,1018.13
2023-09-25T09:42:26.281Z,1018.12
2023-09-25T09:43:26.278Z,1018.08
2023-09-25T09:44:26.311Z,1018.10
2023-09-25T09:45:26.387Z,1018.11
2023-09-25T09:46:26.553Z,1018.09
2023-09-25T09:47:26.388Z,1018.09
2023-09-25T09:48:26.466Z,1018.10
2023-09-25T09:49:26.442Z,1018.08
2023-09-25T09:50:26.482Z,1018.08
2023-09-25T09:51:26.525Z,1018.11
2023-09-25T09:52:26.523Z,1018.15
2023-09-25T09:53:26.551Z,1018.09
2023-09-25T09:54:26.599Z,1018.05
2023-09-25T09:55:26.607Z,1018.08
2023-09-25T09:56:26.631Z,1018.03
2023-09-25T09:57:26.708Z,1018.09
2023-09-25T09:58:26.686Z,1018.07
2023-09-25T09:59:26.717Z,1018.05
2023-09-25T10:00:26.794Z,1018.02
2023-09-25T10:01:26.922Z,1017.97
2023-09-25T10:02:26.944Z,1017.91
2023-09-25T10:03:27.139Z,1017.96
2023-09-25T10:04:27.116Z,1017.94
2023-09-25T10:05:26.879Z,1017.97
2023-09-25T10:06:26.938Z,1017.89
2023-09-25T10:07:26.933Z,1017.96
2023-09-25T10:08:26.957Z,1017.92
2023-09-25T10:09:26.997Z,1017.91
2023-09-25T10:10:27.012Z,1017.93
2023-09-25T10:11:29.500Z,1017.91
2023-09-25T10:12:27.098Z,1017.94
2023-09-25T10:13:27.193Z,1017.92
2023-09-25T10:14:27.126Z,1017.93
2023-09-25T10:15:27.191Z,1017.96
2023-09-25T10:16:27.348Z,1017.93
2023-09-25T10:17:27.298Z,1017.93
2023-09-25T10:18:27.276Z,1017.89
2023-09-25T10:19:27.260Z,1017.90
2023-09-25T10:20:27.288Z,1017.90
2023-09-25T10:21:27.339Z,1017.87
2023-09-25T10:22:27.391Z,1017.92
2023-09-25T10:23:27.381Z,1017.90
2023-09-25T10:24:27.420Z,1017.86
2023-09-25T10:25:27.475Z,1017.88
2023-09-25T10:26:27.492Z,1017.89
2023-09-25T10:27:27.515Z,1017.86
2023-09-25T10:28:27.516Z,1017.87
2023-09-25T10:29:27.552Z,1017.84
2023-09-25T10:30:27.593Z,1017.87
2023-09-25T10:31:27.616Z,1017.83
2023-09-25T10:32:27.650Z,1017.84
2023-09-25T10:33:27.694Z,1017.82
2023-09-25T10:34:27.764Z,1017.85
2023-09-25T10:35:27.706Z,1017.85
2023-09-25T10:36:27.778Z,1017.87
2023-09-25T10:37:27.758Z,1017.85
2023-09-25T10:38:31.857Z,1017.82
2023-09-25T10:39:27.828Z,1017.80
2023-09-25T10:40:27.847Z,1017.78
2023-09-25T10:41:27.876Z,1017.79
2023-09-25T10:42:27.961Z,1017.81
2023-09-25T10:43:27.932Z,1017.77
2023-09-25T10:44:27.960Z,1017.77
2023-09-25T10:45:28.034Z,1017.80
2023-09-25T10:46:28.105Z,1017.74
2023-09-25T10:47:28.041Z,1017.75
2023-09-25T10:48:28.133Z,1017.69
2023-09-25T10:49:28.105Z,1017.73
2023-09-25T10:50:28.130Z,1017.71
2023-09-25T10:51:28.198Z,1017.68
2023-09-25T10:52:28.195Z,1017.68
2023-09-25T10:53:28.380Z,1017.64
2023-09-25T10:54:28.259Z,1017.59
2023-09-25T10:55:28.272Z,1017.60
2023-09-25T10:56:28.299Z,1017.59
2023-09-25T10:57:28.371Z,1017.56
2023-09-25T10:58:28.356Z,1017.55
2023-09-25T10:59:28.389Z,1017.53
2023-09-25T11:00:28.441Z,1017.54
2023-09-25T11:01:28.519Z,1017.54
2023-09-25T11:02:28.486Z,1017.55
2023-09-25T11:03:28.656Z,1017.55
2023-09-25T11:04:28.727Z,1017.52
2023-09-25T11:05:28.559Z,1017.56
2023-09-25T11:06:28.668Z,1017.54
2023-09-25T11:07:28.633Z,1017.47
2023-09-25T11:08:28.663Z,1017.45
2023-09-25T11:09:28.713Z,1017.40
2023-09-25T11:10:28.794Z,1017.40
2023-09-25T11:11:28.833Z,1017.36
2023-09-25T11:12:28.781Z,1017.36
2023-09-25T11:13:28.789Z,1017.32
2023-09-25T11:14:28.818Z,1017.29
2023-09-25T11:15:28.875Z,1017.28
2023-09-25T11:16:28.882Z,1017.21
2023-09-25T11:17:29.077Z,1017.25
2023-09-25T11:18:28.986Z,1017.19
2023-09-25T11:19:28.965Z,1017.18
2023-09-25T11:20:29.009Z,1017.21
2023-09-25T11:21:29.055Z,1017.22
2023-09-25T11:22:29.058Z,1017.22
2023-09-25T11:23:29.082Z,1017.22
2023-09-25T11:24:29.137Z,1017.22
2023-09-25T11:25:29.133Z,1017.20
2023-09-25T11:26:29.165Z,1017.24
2023-09-25T11:27:29.230Z,1017.24
2023-09-25T11:28:29.223Z,1017.24
2023-09-25T11:29:29.251Z,1017.25
2023-09-25T11:30:29.339Z,1017.25
2023-09-25T11:31:29.430Z,1017.23
2023-09-25T11:32:29.496Z,1017.18
2023-09-25T11:33:29.427Z,1017.17
2023-09-25T11:34:29.398Z,1017.17
2023-09-25T11:35:29.423Z,1017.15
2023-09-25T11:36:29.518Z,1017.16
2023-09-25T11:37:29.708Z,1017.09
2023-09-25T11:38:29.931Z,1017.14
2023-09-25T11:39:29.586Z,1017.13
2023-09-25T11:40:29.572Z,1017.14
2023-09-25T11:41:29.594Z,1017.18
2023-09-25T11:42:29.660Z,1017.12
2023-09-25T11:43:29.661Z,1017.07
2023-09-25T11:44:29.680Z,1017.13
2023-09-25T11:45:29.739Z,1017.08
2023-09-25T11:46:29.748Z,1017.06
2023-09-25T11:47:29.777Z,1017.06
2023-09-25T11:48:29.835Z,1017.05
2023-09-25T11:49:29.826Z,1017.08
2023-09-25T11:50:29.854Z,1017.10
2023-09-25T11:51:29.949Z,1017.06
2023-09-25T11:52:29.917Z,1017.09
2023-09-25T11:53:29.943Z,1017.12
2023-09-25T11:54:29.983Z,1017.16
2023-09-25T11:55:30.000Z,1017.13
2023-09-25T11:56:30.037Z,1017.19
2023-09-25T11:57:30.085Z,1017.22
2023-09-25T11:58:30.088Z,1017.20
2023-09-25T11:59:30.121Z,1017.21
2023-09-25T12:00:30.170Z,1017.20
2023-09-25T12:01:30.312Z,1017.19
2023-09-25T12:02:30.210Z,1017.22
2023-09-25T12:03:30.297Z,1017.22
2023-09-25T12:04:30.366Z,1017.25
2023-09-25T12:05:30.300Z,1017.26
2023-09-25T12:06:31.834Z,1017.27
2023-09-25T12:07:30.353Z,1017.26
2023-09-25T12:08:30.388Z,1017.23
2023-09-25T12:09:30.446Z,1017.23
2023-09-25T12:10:30.443Z,1017.24
2023-09-25T12:11:30.477Z,1017.16
2023-09-25T12:12:30.557Z,1017.17
2023-09-25T12:13:30.796Z,1017.20
2023-09-25T12:14:30.563Z,1017.23
2023-09-25T12:15:30.624Z,1017.21
2023-09-25T12:16:30.693Z,1017.21
2023-09-25T12:17:30.781Z,1017.24
2023-09-25T12:18:30.792Z,1017.25
2023-09-25T12:19:30.750Z,1017.24
2023-09-25T12:20:30.742Z,1017.24
2023-09-25T12:21:30.809Z,1017.23
2023-09-25T12:22:30.798Z,1017.23
2023-09-25T12:23:30.829Z,1017.25
2023-09-25T12:24:30.876Z,1017.28
2023-09-25T12:25:30.928Z,1017.28
2023-09-25T12:26:30.924Z,1017.36
2023-09-25T12:27:30.979Z,1017.33
2023-09-25T12:28:30.987Z,1017.33
2023-09-25T12:29:31.014Z,1017.36
2023-09-25T12:30:31.052Z,1017.35
2023-09-25T12:31:31.198Z,1017.35
2023-09-25T12:32:31.128Z,1017.41
2023-09-25T12:33:31.157Z,1017.38
2023-09-25T12:34:31.187Z,1017.39
2023-09-25T12:35:31.199Z,1017.37
2023-09-25T12:36:31.260Z,1017.37
2023-09-25T12:37:31.249Z,1017.38
2023-09-25T12:38:31.285Z,1017.41
2023-09-25T12:39:31.372Z,1017.41
2023-09-25T12:40:31.659Z,1017.38
2023-09-25T12:41:31.370Z,1017.36
2023-09-25T12:42:47.224Z,1017.38
2023-09-25T12:43:31.491Z,1017.33
2023-09-25T12:44:31.463Z,1017.35
2023-09-25T12:45:31.549Z,1017.33
2023-09-25T12:46:31.570Z,1017.33
2023-09-25T12:47:31.582Z,1017.28
2023-09-25T12:48:31.784Z,1017.32
2023-09-25T12:49:31.699Z,1017.30
2023-09-25T12:50:34.204Z,1017.28
2023-09-25T12:51:31.711Z,1017.29
2023-09-25T12:52:31.702Z,1017.28
2023-09-25T12:53:31.747Z,1017.28
2023-09-25T12:54:31.800Z,1017.23
2023-09-25T12:55:31.797Z,1017.23
2023-09-25T12:56:31.831Z,1017.19
2023-09-25T12:57:31.901Z,1017.20
2023-09-25T12:58:31.889Z,1017.20
2023-09-25T12:59:31.914Z,1017.25
2023-09-25T13:00:31.968Z,1017.27
2023-09-25T13:01:31.994Z,1017.27
2023-09-25T13:02:32.061Z,1017.29
2023-09-25T13:03:32.218Z,1017.31
2023-09-25T13:04:32.123Z,1017.33
2023-09-25T13:05:32.097Z,1017.34
2023-09-25T13:06:32.149Z,1017.39
2023-09-25T13:07:32.156Z,1017.37
2023-09-25T13:08:32.187Z,1017.33
2023-09-25T13:09:32.253Z,1017.31
2023-09-25T13:10:32.252Z,1017.29
2023-09-25T13:11:32.277Z,1017.27
2023-09-25T13:12:32.360Z,1017.26
2023-09-25T13:13:32.336Z,1017.24
2023-09-25T13:14:32.368Z,1017.27
2023-09-25T13:15:32.415Z,1017.25
2023-09-25T13:16:32.531Z,1017.27
2023-09-25T13:17:32.494Z,1017.26
2023-09-25T13:18:32.533Z,1017.26
2023-09-25T13:19:32.521Z,1017.25
2023-09-25T13:20:32.549Z,1017.23
2023-09-25T13:21:32.612Z,1017.20
2023-09-25T13:22:37.354Z,1017.22
2023-09-25T13:23:32.668Z,1017.20
2023-09-25T13:24:32.694Z,1017.17
2023-09-25T13:25:32.700Z,1017.15
2023-09-25T13:26:32.731Z,1017.13
2023-09-25T13:27:32.780Z,1017.17
2023-09-25T13:28:32.795Z,1017.15
2023-09-25T13:29:32.820Z,1017.17
2023-09-25T13:30:32.886Z,1017.11
2023-09-25T13:31:32.916Z,1017.12
2023-09-25T13:32:32.948Z,1017.08
2023-09-25T13:33:32.964Z,1017.10
2023-09-25T13:34:32.973Z,1017.11
2023-09-25T13:35:33.004Z,1017.09
2023-09-25T13:36:33.044Z,1017.11
2023-09-25T13:37:33.063Z,1017.10
2023-09-25T13:38:33.093Z,1017.11
2023-09-25T13:39:33.154Z,1017.14
2023-09-25T13:40:33.159Z,1017.11
2023-09-25T13:41:33.187Z,1017.16
2023-09-25T13:42:33.242Z,1017.14
2023-09-25T13:43:33.248Z,1017.15
2023-09-25T13:44:33.282Z,1017.15
2023-09-25T13:45:33.397Z,1017.17
2023-09-25T13:46:33.370Z,1017.17
2023-09-25T13:47:33.425Z,1017.20
2023-09-25T13:48:33.415Z,1017.18
2023-09-25T13:49:33.435Z,1017.15
2023-09-25T13:50:33.463Z,1017.17
2023-09-25T13:51:33.492Z,1017.11
2023-09-25T13:52:33.517Z,1017.11
2023-09-25T13:53:33.547Z,1017.11
2023-09-25T13:54:33.647Z,1017.15
2023-09-25T13:55:33.627Z,1017.15
2023-09-25T13:56:33.657Z,1017.14
2023-09-25T13:57:33.686Z,1017.17
2023-09-25T13:58:33.704Z,1017.15
2023-09-25T13:59:33.729Z,1017.17
2023-09-25T14:00:33.817Z,1017.16
2023-09-25T14:01:33.827Z,1017.14
2023-09-25T14:02:33.836Z,1017.16
2023-09-25T14:03:33.973Z,1017.10